Booker, Arkansas
Current Conditions -  °F | °C
As of 10:53 AM on Thursday 27 Nov 2014 (Local Time) from KLIT Reporting Station
Scattered Clouds Scattered Clouds  
Wind Chill: 45°   Ceiling: Unl
Heat Index: 45°   Visibility: 10mi
Dew Point: 24°   Wind: 0mph
Humidity: 44%   Direction: NA
Pressure: 30.57"   Gusts: NA
Location:  34.757°N, 92.1411°W
Report Text: KLIT 271653Z 00000KT 10SM FEW030 SCT250 07/M04 A3057 RMK AO2 SLP354 T00721044
Loading
Personal Weather Stations






























Interactive Weather Map New forecast layout! Learn more

10-Day Weather Forecast

Advertisements
Track Severe Weather on mobile